createdAt,value
2022-10-13T00:04:28.057Z,101372.21
2022-10-13T00:09:30.658Z,101371.41
2022-10-13T00:14:33.350Z,101372.87
2022-10-13T00:19:36.677Z,101370.77
2022-10-13T00:24:39.418Z,101369.05
2022-10-13T00:29:42.165Z,101375.79
2022-10-13T00:34:44.945Z,101373.38
2022-10-13T00:39:47.564Z,101376.53
2022-10-13T00:45:05.306Z,101375.80
2022-10-13T00:50:12.406Z,101374.83
2022-10-13T00:55:19.619Z,101377.25
2022-10-13T01:00:24.355Z,101374.84
2022-10-13T01:05:27.780Z,101367.92
2022-10-13T01:10:45.493Z,101368.84
2022-10-13T01:16:01.639Z,101364.17
2022-10-13T01:21:13.169Z,101361.16
2022-10-13T01:26:36.994Z,101352.16
2022-10-13T01:31:52.856Z,101348.71
2022-10-13T01:37:04.941Z,101348.81
2022-10-13T01:42:38.961Z,101348.13
2022-10-13T01:47:43.157Z,101349.70
2022-10-13T01:52:48.310Z,101355.58
2022-10-13T01:57:50.918Z,101351.64
2022-10-13T02:03:02.807Z,101343.42
2022-10-13T02:08:18.252Z,101346.47
2022-10-13T02:13:26.361Z,101346.34
2022-10-13T02:18:33.183Z,101350.29
2022-10-13T02:23:36.127Z,101349.42
2022-10-13T02:28:39.170Z,101340.91
2022-10-13T02:33:42.125Z,101338.60
2022-10-13T02:38:44.730Z,101335.26
2022-10-13T02:43:47.436Z,101329.59
2022-10-13T02:48:50.134Z,101328.11
2022-10-13T02:53:52.923Z,101326.95
2022-10-13T02:58:55.631Z,101325.27
2022-10-13T03:03:58.447Z,101322.77
2022-10-13T03:09:01.130Z,101325.80
2022-10-13T03:14:03.931Z,101323.40
2022-10-13T03:19:06.592Z,101327.02
2022-10-13T03:24:09.226Z,101325.38
2022-10-13T03:29:16.841Z,101325.02
2022-10-13T03:34:20.372Z,101323.40
2022-10-13T03:39:23.062Z,101319.54
2022-10-13T03:44:25.888Z,101315.69
2022-10-13T03:49:28.507Z,101310.63
2022-10-13T03:54:31.450Z,101307.59
2022-10-13T03:59:36.733Z,101301.49
2022-10-13T04:04:39.841Z,101303.00
2022-10-13T04:09:42.470Z,101303.16
2022-10-13T04:14:45.122Z,101306.45
2022-10-13T04:19:47.800Z,101304.44
2022-10-13T04:24:50.393Z,101303.42
2022-10-13T04:29:53.482Z,101308.03
2022-10-13T04:34:56.093Z,101305.61
2022-10-13T04:39:58.721Z,101304.92
2022-10-13T04:45:01.415Z,101304.38
2022-10-13T04:50:04.515Z,101301.64
2022-10-13T04:55:09.134Z,101304.38
2022-10-13T05:00:12.340Z,101304.39
2022-10-13T05:05:15.041Z,101302.36
2022-10-13T05:10:17.776Z,101306.30
2022-10-13T05:15:20.478Z,101299.36
2022-10-13T05:20:23.116Z,101295.45
2022-10-13T05:25:28.237Z,101294.52
2022-10-13T05:30:33.776Z,101291.05
2022-10-13T05:35:36.447Z,101287.19
2022-10-13T05:40:39.066Z,101281.90
2022-10-13T05:45:41.683Z,101275.52
2022-10-13T05:50:44.334Z,101276.39
2022-10-13T05:55:47.081Z,101275.73
2022-10-13T06:00:49.875Z,101280.25
2022-10-13T06:05:53.206Z,101281.27
2022-10-13T06:10:55.951Z,101289.46
2022-10-13T06:15:58.621Z,101293.31
2022-10-13T06:21:01.303Z,101291.27
2022-10-13T06:26:04.135Z,101289.40
2022-10-13T06:31:06.925Z,101282.92
2022-10-13T06:36:10.207Z,101279.09
2022-10-13T06:41:14.357Z,101275.11
2022-10-13T06:46:17.455Z,101270.13
2022-10-13T06:51:20.109Z,101266.56
2022-10-13T06:56:23.467Z,101262.23
2022-10-13T07:01:26.096Z,101256.65
2022-10-13T07:06:29.967Z,101256.14
2022-10-13T07:11:35.133Z,101258.83
2022-10-13T07:16:38.974Z,101262.48
2022-10-13T07:21:41.836Z,101256.61
2022-10-13T07:26:45.162Z,101254.86
2022-10-13T07:31:47.878Z,101251.96
2022-10-13T07:36:50.827Z,101250.65
2022-10-13T07:41:53.537Z,101241.46
2022-10-13T07:46:56.270Z,101239.11
2022-10-13T07:51:58.983Z,101237.55
2022-10-13T07:57:02.498Z,101233.77
2022-10-13T08:02:05.609Z,101217.69
2022-10-13T08:07:08.310Z,101216.81
2022-10-13T08:12:11.109Z,101216.12
2022-10-13T08:17:13.774Z,101202.82
2022-10-13T08:22:17.117Z,101207.02
2022-10-13T08:27:26.619Z,101201.97
2022-10-13T08:32:39.870Z,101202.59
2022-10-13T08:37:42.726Z,101203.96
2022-10-13T08:42:46.383Z,101198.52
2022-10-13T08:47:55.551Z,101201.22
2022-10-13T08:53:02.826Z,101210.77
2022-10-13T08:58:22.643Z,101202.52
2022-10-13T09:03:28.801Z,101184.42
2022-10-13T09:08:42.584Z,101177.10
2022-10-13T09:13:45.277Z,101166.24
2022-10-13T09:18:47.893Z,101156.30
2022-10-13T09:23:54.080Z,101154.84
2022-10-13T09:28:56.826Z,101153.10
2022-10-13T09:34:13.725Z,101148.67
2022-10-13T09:39:17.296Z,101146.87
2022-10-13T09:44:30.002Z,101150.88
2022-10-13T09:49:35.818Z,101141.41
2022-10-13T09:54:51.271Z,101131.23
2022-10-13T10:00:03.847Z,101136.61
2022-10-13T10:05:38.693Z,101137.55
2022-10-13T10:10:41.855Z,101130.30
2022-10-13T10:16:11.694Z,101127.46
2022-10-13T10:21:29.613Z,101121.24
2022-10-13T10:26:44.245Z,101112.02
2022-10-13T10:32:05.246Z,101105.36
2022-10-13T10:37:21.141Z,101096.83
2022-10-13T10:42:33.040Z,101085.00
2022-10-13T10:47:44.545Z,101086.28
2022-10-13T10:53:20.234Z,101074.98
2022-10-13T10:58:50.920Z,101079.67
2022-10-13T11:04:15.686Z,101078.83
2022-10-13T11:09:41.255Z,101068.83
2022-10-13T11:14:54.283Z,101056.58
2022-10-13T11:19:58.499Z,101060.90
2022-10-13T11:25:22.773Z,101058.71
2022-10-13T11:30:47.648Z,101048.87
2022-10-13T11:35:50.655Z,101043.02
2022-10-13T11:41:22.632Z,101038.77
2022-10-13T11:46:50.424Z,101036.38
2022-10-13T11:52:12.603Z,101028.75
2022-10-13T11:57:26.803Z,101023.09
2022-10-13T12:02:29.713Z,101007.34
2022-10-13T12:07:36.301Z,101003.64
2022-10-13T12:12:46.969Z,101000.99
2022-10-13T12:17:49.565Z,101003.26
2022-10-13T12:22:54.302Z,100985.23
2022-10-13T12:27:59.766Z,100981.14
2022-10-13T12:33:04.850Z,100980.76
2022-10-13T12:38:19.293Z,100979.34
2022-10-13T12:43:27.244Z,100968.80
2022-10-13T12:48:35.183Z,100960.35
2022-10-13T12:53:39.241Z,100954.00
2022-10-13T12:58:56.394Z,100945.77
2022-10-13T13:04:23.142Z,100947.55
2022-10-13T13:09:34.980Z,100948.16
2022-10-13T13:14:41.998Z,100951.64
2022-10-13T13:19:51.114Z,100940.40
2022-10-13T13:24:53.985Z,100927.93
2022-10-13T13:29:56.820Z,100921.05
2022-10-13T13:34:59.439Z,100922.09
2022-10-13T13:40:02.545Z,100921.27
2022-10-13T13:45:05.502Z,100914.36
2022-10-13T13:50:24.731Z,100919.92
2022-10-13T13:55:29.598Z,100917.14
2022-10-13T14:00:33.716Z,100913.27
2022-10-13T14:05:41.254Z,100916.35
2022-10-13T14:10:43.917Z,100914.98
2022-10-13T14:15:46.719Z,100908.73
2022-10-13T14:20:49.911Z,100910.15
2022-10-13T14:25:52.556Z,100911.71
2022-10-13T14:30:55.429Z,100913.08
2022-10-13T14:36:06.778Z,100910.98
2022-10-13T14:41:09.643Z,100910.48
2022-10-13T14:46:13.152Z,100910.30
2022-10-13T14:51:16.650Z,100907.05
2022-10-13T14:56:25.334Z,100900.30
2022-10-13T15:01:28.117Z,100893.96
2022-10-13T15:06:31.880Z,100895.17
2022-10-13T15:11:37.235Z,100897.91
2022-10-13T15:16:40.213Z,100893.90
2022-10-13T15:21:42.895Z,100889.34
2022-10-13T15:26:45.545Z,100884.05
2022-10-13T15:31:48.172Z,100884.18
2022-10-13T15:36:50.802Z,100886.87
2022-10-13T15:41:53.619Z,100878.04
2022-10-13T15:47:07.897Z,100880.61
2022-10-13T15:52:11.229Z,100876.27
2022-10-13T15:57:14.686Z,100868.83
2022-10-13T16:02:17.428Z,100870.08
2022-10-13T16:07:20.187Z,100862.03
2022-10-13T16:12:24.419Z,100866.25
2022-10-13T16:17:27.102Z,100870.70
2022-10-13T16:22:30.037Z,100865.52
2022-10-13T16:27:33.541Z,100862.09
2022-10-13T16:32:40.475Z,100859.48
2022-10-13T16:37:43.648Z,100858.97
2022-10-13T16:42:46.358Z,100862.48
2022-10-13T16:47:51.989Z,100865.50
2022-10-13T16:52:54.650Z,100862.85
2022-10-13T16:57:57.346Z,100857.50
2022-10-13T17:02:59.996Z,100858.71
2022-10-13T17:08:02.904Z,100862.61
2022-10-13T17:13:05.617Z,100861.92
2022-10-13T17:18:08.258Z,100856.88
2022-10-13T17:23:10.904Z,100857.54
2022-10-13T17:28:14.370Z,100852.77
2022-10-13T17:33:17.122Z,100853.42
2022-10-13T17:38:19.868Z,100851.13
2022-10-13T17:43:22.519Z,100847.14
2022-10-13T17:48:25.201Z,100845.35
2022-10-13T17:53:27.915Z,100845.06
2022-10-13T17:58:31.325Z,100849.92
2022-10-13T18:03:34.164Z,100847.58
2022-10-13T18:08:36.934Z,100848.85
2022-10-13T18:13:39.736Z,100849.10
2022-10-13T18:18:46.431Z,100850.29
2022-10-13T18:23:49.433Z,100846.10
2022-10-13T18:28:52.659Z,100841.55
2022-10-13T18:33:57.895Z,100841.58
2022-10-13T18:39:07.457Z,100838.96
2022-10-13T18:44:10.319Z,100836.77
2022-10-13T18:49:15.185Z,100835.32
2022-10-13T18:54:17.913Z,100834.12
2022-10-13T18:59:20.935Z,100830.21
2022-10-13T19:04:23.929Z,100828.77
2022-10-13T19:09:26.826Z,100827.04
2022-10-13T19:14:30.670Z,100832.89
2022-10-13T19:19:33.302Z,100830.05
2022-10-13T19:24:36.672Z,100823.70
2022-10-13T19:29:39.361Z,100821.09
2022-10-13T19:34:41.972Z,100816.44
2022-10-13T19:39:44.655Z,100813.00
2022-10-13T19:44:47.318Z,100813.36
2022-10-13T19:49:49.940Z,100806.73
2022-10-13T19:54:52.547Z,100809.70
2022-10-13T19:59:55.179Z,100809.74
2022-10-13T20:04:57.945Z,100810.05
2022-10-13T20:10:00.621Z,100815.39
2022-10-13T20:15:03.848Z,100811.95
2022-10-13T20:20:07.873Z,100812.08
2022-10-13T20:25:12.834Z,100806.88
2022-10-13T20:30:15.498Z,100806.52
2022-10-13T20:35:18.129Z,100807.65
2022-10-13T20:40:20.867Z,100801.40
2022-10-13T20:45:23.633Z,100788.40
2022-10-13T20:50:26.313Z,100782.08
2022-10-13T20:55:29.026Z,100781.94
2022-10-13T21:00:31.748Z,100774.25
2022-10-13T21:05:34.377Z,100771.73
2022-10-13T21:10:37.423Z,100770.13
2022-10-13T21:15:43.403Z,100766.76
2022-10-13T21:20:47.542Z,100767.98
2022-10-13T21:25:50.442Z,100769.45
2022-10-13T21:31:23.344Z,100764.09
2022-10-13T21:36:29.546Z,100761.98
2022-10-13T21:41:32.270Z,100766.45
2022-10-13T21:46:35.778Z,100760.40
2022-10-13T21:51:40.183Z,100759.41
2022-10-13T21:56:43.187Z,100753.91
2022-10-13T22:01:45.864Z,100749.23
2022-10-13T22:06:48.813Z,100741.83
2022-10-13T22:11:56.185Z,100743.64
2022-10-13T22:16:59.313Z,100742.39
2022-10-13T22:22:02.314Z,100740.18
2022-10-13T22:27:05.058Z,100731.02
2022-10-13T22:32:07.712Z,100733.27
2022-10-13T22:37:10.413Z,100735.23
2022-10-13T22:42:13.113Z,100734.02
2022-10-13T22:47:15.911Z,100735.55
2022-10-13T22:52:18.581Z,100732.48
2022-10-13T22:57:21.549Z,100734.40
2022-10-13T23:02:24.394Z,100733.77
2022-10-13T23:07:29.401Z,100737.22
2022-10-13T23:12:32.047Z,100731.53
2022-10-13T23:17:34.956Z,100730.27
2022-10-13T23:22:37.775Z,100732.23
2022-10-13T23:27:40.883Z,100725.06
2022-10-13T23:32:43.539Z,100719.96
2022-10-13T23:37:46.197Z,100718.36
2022-10-13T23:42:48.847Z,100718.38
2022-10-13T23:47:51.569Z,100711.18
2022-10-13T23:52:56.144Z,100706.25
2022-10-13T23:57:58.837Z,100704.08
